KCAV

Clarion Municipal Airport

Clarion, Iowa, USA
METAR KCAV 141655Z AUTO 21005KT M1/4SM FZFG OVC002 M03/M03 A3026 RMK AO2 PWINO
Observed Flight Rules
Dec-14 @ 16:55 UTC (9 minutes ago) Instrument Flight Rules
Wind Visibility Clouds Conditions
210° at 5 knots 1/4 miles
  • Overcast at 200' AGL
  • Freezing
  • Fog
Temperatures Readings
Current -3°C / 27°F
Dewpoint -3°C / 27°F
Humidity 100%
Altimeter 30.26" Hg
Pressure 1025 hPa
Elevation 354
METAR KCAV 141655Z AUTO 21005KT M1/4SM FZFG OVC002 M03/M03 A3026 RMK AO2 PWINO
Observed Flight Rules
Dec-14 @ 16:55 UTC
(9 minutes ago)
LIFR
Wind Visibility
210° at 5 knots 1/4 miles
Clouds
  • Overcast at 200' AGL
Conditions
  • Freezing
  • Fog
Temperature Dewpoint
-3°C / 27°F -3°C / 27°F
Humidity Altimeter Pressure
100% 30.26" Hg 1025 hPa